Terminal Aerodrome Forecast
Issued by NWS

Home | Current Version | Previous Version | Text Only | Print | Product List | Glossary On
Versions: 1 2 3 4 5 6 7 8 9 10 11 12 13 14 15 16 17 18 19 20 21 22 23 24 25 26 27 28 29 30 31
000
FTUS43 KLOT 300901 AAB
TAFDPA
TAF AMD
KDPA 300901Z 3009/3106 07015G22KT 4SM SHRA SCT006 OVC030
      TEMPO 3009/3011 1 1/2SM TSRA BKN006 OVC030CB
     FM301100 05012G18KT 3SM -SHRA SCT004 OVC006
     FM301900 03012KT 3SM -SHRA OVC005
      TEMPO 3019/3021 2SM -TSRA BKN005 OVC020CB
     FM310100 34010KT 2SM -DZ OVC005=

USA.gov is the U.S. government's official web portal to all federal, state and local government web resources and services.